Air Resources Laboratory banner image
Air Resources Laboratory web site National Oceanic and Atmospheric Administration (NOAA)

fl metar


KLAL 211150Z 36005KT 10SM SKC 13/13 A3017=
KOCF 211151Z 36004KT 10SM CLR 11/10 A3019 RMK AO2 SLP225 70001 T01060100 10122
 20106 53009=
KOMN 211150Z 30004KT 3SM BR CLR 13/13 A3016 RMK FIRST=
KSUA 211150Z 30004KT 7SM SKC 19/17 A3012=
KTIX 211147Z 33005KT 7SM CLR 15/14 A3015=
KVQQ 211150Z 35004KT 7SM CLR 08/08 A3019=